sensor_id;sensor_type;location;lat;lon;timestamp;P1;durP1;ratioP1;P2;durP2;ratioP2
27889;SDS011;15238;49.082;9.102;2022-08-21T00:01:10;3.67;;;1.80;;
27889;SDS011;15238;49.082;9.102;2022-08-21T00:03:15;4.72;;;1.50;;
27889;SDS011;15238;49.082;9.102;2022-08-21T00:05:16;4.53;;;1.42;;
27889;SDS011;15238;49.082;9.102;2022-08-21T00:07:17;3.78;;;2.03;;
27889;SDS011;15238;49.082;9.102;2022-08-21T00:09:19;1.67;;;1.10;;
27889;SDS011;15238;49.082;9.102;2022-08-21T00:11:19;4.35;;;1.70;;
27889;SDS011;15238;49.082;9.102;2022-08-21T00:13:20;4.43;;;1.38;;
27889;SDS011;15238;49.082;9.102;2022-08-21T00:15:26;2.80;;;1.27;;
27889;SDS011;15238;49.082;9.102;2022-08-21T00:17:28;3.70;;;1.40;;
27889;SDS011;15238;49.082;9.102;2022-08-21T00:19:29;4.53;;;2.05;;
27889;SDS011;15238;49.082;9.102;2022-08-21T00:21:29;5.65;;;1.50;;
27889;SDS011;15238;49.082;9.102;2022-08-21T00:23:30;3.28;;;1.40;;
27889;SDS011;15238;49.082;9.102;2022-08-21T00:25:33;4.20;;;1.52;;
27889;SDS011;15238;49.082;9.102;2022-08-21T00:27:34;6.25;;;1.48;;
27889;SDS011;15238;49.082;9.102;2022-08-21T00:29:35;7.80;;;1.45;;
27889;SDS011;15238;49.082;9.102;2022-08-21T00:31:36;3.72;;;1.80;;
27889;SDS011;15238;49.082;9.102;2022-08-21T00:33:37;2.88;;;1.25;;
27889;SDS011;15238;49.082;9.102;2022-08-21T00:35:38;2.88;;;1.23;;
27889;SDS011;15238;49.082;9.102;2022-08-21T00:37:41;2.95;;;1.50;;
27889;SDS011;15238;49.082;9.102;2022-08-21T00:39:42;2.70;;;1.50;;
27889;SDS011;15238;49.082;9.102;2022-08-21T00:41:42;4.28;;;1.50;;
27889;SDS011;15238;49.082;9.102;2022-08-21T00:43:43;2.92;;;1.70;;
27889;SDS011;15238;49.082;9.102;2022-08-21T00:45:44;3.38;;;1.58;;
27889;SDS011;15238;49.082;9.102;2022-08-21T00:47:44;4.75;;;1.50;;
27889;SDS011;15238;49.082;9.102;2022-08-21T00:49:45;3.13;;;1.60;;
27889;SDS011;15238;49.082;9.102;2022-08-21T00:51:51;4.32;;;1.42;;
27889;SDS011;15238;49.082;9.102;2022-08-21T00:53:56;2.67;;;1.60;;
27889;SDS011;15238;49.082;9.102;2022-08-21T00:56:00;3.03;;;1.50;;
27889;SDS011;15238;49.082;9.102;2022-08-21T00:58:03;6.22;;;1.70;;
27889;SDS011;15238;49.082;9.102;2022-08-21T01:00:08;3.33;;;1.83;;
27889;SDS011;15238;49.082;9.102;2022-08-21T01:02:11;2.95;;;1.38;;
27889;SDS011;15238;49.082;9.102;2022-08-21T01:04:12;3.00;;;1.60;;
27889;SDS011;15238;49.082;9.102;2022-08-21T01:06:13;6.05;;;2.08;;
27889;SDS011;15238;49.082;9.102;2022-08-21T01:08:14;2.97;;;1.70;;
27889;SDS011;15238;49.082;9.102;2022-08-21T01:10:16;5.95;;;1.73;;
27889;SDS011;15238;49.082;9.102;2022-08-21T01:12:18;4.55;;;1.88;;
27889;SDS011;15238;49.082;9.102;2022-08-21T01:14:19;7.13;;;1.80;;
27889;SDS011;15238;49.082;9.102;2022-08-21T01:16:20;4.07;;;1.90;;
27889;SDS011;15238;49.082;9.102;2022-08-21T01:18:22;3.33;;;2.38;;
27889;SDS011;15238;49.082;9.102;2022-08-21T01:20:23;3.33;;;1.30;;
27889;SDS011;15238;49.082;9.102;2022-08-21T01:22:24;5.88;;;1.50;;
27889;SDS011;15238;49.082;9.102;2022-08-21T01:24:25;3.22;;;1.70;;
27889;SDS011;15238;49.082;9.102;2022-08-21T01:26:27;4.90;;;1.63;;
27889;SDS011;15238;49.082;9.102;2022-08-21T01:28:31;3.78;;;1.50;;
27889;SDS011;15238;49.082;9.102;2022-08-21T01:30:36;4.63;;;1.65;;
27889;SDS011;15238;49.082;9.102;2022-08-21T01:32:38;3.78;;;1.80;;
27889;SDS011;15238;49.082;9.102;2022-08-21T01:34:39;2.75;;;1.42;;
27889;SDS011;15238;49.082;9.102;2022-08-21T01:36:43;7.10;;;2.30;;
27889;SDS011;15238;49.082;9.102;2022-08-21T01:38:44;5.70;;;1.90;;
27889;SDS011;15238;49.082;9.102;2022-08-21T01:40:45;4.78;;;1.83;;
27889;SDS011;15238;49.082;9.102;2022-08-21T01:42:45;4.57;;;1.70;;
27889;SDS011;15238;49.082;9.102;2022-08-21T01:44:46;4.25;;;1.83;;
27889;SDS011;15238;49.082;9.102;2022-08-21T01:46:47;3.67;;;1.60;;
27889;SDS011;15238;49.082;9.102;2022-08-21T01:48:48;7.22;;;1.83;;
27889;SDS011;15238;49.082;9.102;2022-08-21T01:50:48;3.47;;;1.83;;
27889;SDS011;15238;49.082;9.102;2022-08-21T01:52:49;5.13;;;2.13;;
27889;SDS011;15238;49.082;9.102;2022-08-21T01:54:50;5.68;;;1.90;;
27889;SDS011;15238;49.082;9.102;2022-08-21T01:56:51;4.88;;;2.33;;
27889;SDS011;15238;49.082;9.102;2022-08-21T01:58:53;4.55;;;1.70;;
27889;SDS011;15238;49.082;9.102;2022-08-21T02:00:53;5.80;;;3.90;;
27889;SDS011;15238;49.082;9.102;2022-08-21T02:02:54;6.00;;;2.92;;
27889;SDS011;15238;49.082;9.102;2022-08-21T02:04:55;5.20;;;2.22;;
27889;SDS011;15238;49.082;9.102;2022-08-21T02:06:56;2.97;;;1.67;;
27889;SDS011;15238;49.082;9.102;2022-08-21T02:08:56;9.65;;;2.08;;
27889;SDS011;15238;49.082;9.102;2022-08-21T02:10:57;3.50;;;1.98;;
27889;SDS011;15238;49.082;9.102;2022-08-21T02:12:58;4.70;;;1.98;;
27889;SDS011;15238;49.082;9.102;2022-08-21T02:15:00;4.70;;;1.77;;
27889;SDS011;15238;49.082;9.102;2022-08-21T02:17:01;4.53;;;1.70;;
27889;SDS011;15238;49.082;9.102;2022-08-21T02:19:02;6.50;;;1.90;;
27889;SDS011;15238;49.082;9.102;2022-08-21T02:21:02;3.15;;;1.85;;
27889;SDS011;15238;49.082;9.102;2022-08-21T02:23:05;4.20;;;1.63;;
27889;SDS011;15238;49.082;9.102;2022-08-21T02:25:08;3.33;;;2.20;;
27889;SDS011;15238;49.082;9.102;2022-08-21T02:27:08;2.55;;;1.88;;
27889;SDS011;15238;49.082;9.102;2022-08-21T02:29:09;6.07;;;2.30;;
27889;SDS011;15238;49.082;9.102;2022-08-21T02:31:10;4.18;;;2.15;;
27889;SDS011;15238;49.082;9.102;2022-08-21T02:33:11;2.30;;;1.77;;
27889;SDS011;15238;49.082;9.102;2022-08-21T02:35:12;4.15;;;1.92;;
27889;SDS011;15238;49.082;9.102;2022-08-21T02:37:13;5.88;;;2.20;;
27889;SDS011;15238;49.082;9.102;2022-08-21T02:39:13;6.38;;;2.08;;
27889;SDS011;15238;49.082;9.102;2022-08-21T02:41:15;4.22;;;1.98;;
27889;SDS011;15238;49.082;9.102;2022-08-21T02:43:20;7.53;;;2.72;;
27889;SDS011;15238;49.082;9.102;2022-08-21T02:45:21;3.28;;;1.98;;
27889;SDS011;15238;49.082;9.102;2022-08-21T02:47:22;2.70;;;1.90;;
27889;SDS011;15238;49.082;9.102;2022-08-21T02:49:22;5.93;;;2.10;;
27889;SDS011;15238;49.082;9.102;2022-08-21T02:51:23;5.30;;;2.53;;
27889;SDS011;15238;49.082;9.102;2022-08-21T02:53:25;3.25;;;2.10;;
27889;SDS011;15238;49.082;9.102;2022-08-21T02:55:27;3.92;;;2.38;;
27889;SDS011;15238;49.082;9.102;2022-08-21T02:57:30;3.50;;;2.20;;
27889;SDS011;15238;49.082;9.102;2022-08-21T02:59:32;4.90;;;2.20;;
27889;SDS011;15238;49.082;9.102;2022-08-21T03:01:32;3.15;;;2.15;;
27889;SDS011;15238;49.082;9.102;2022-08-21T03:03:33;4.57;;;2.22;;
27889;SDS011;15238;49.082;9.102;2022-08-21T03:05:36;5.15;;;2.38;;
27889;SDS011;15238;49.082;9.102;2022-08-21T03:07:37;4.88;;;2.20;;
27889;SDS011;15238;49.082;9.102;2022-08-21T03:09:38;3.72;;;2.00;;
27889;SDS011;15238;49.082;9.102;2022-08-21T03:11:39;3.35;;;2.33;;
27889;SDS011;15238;49.082;9.102;2022-08-21T03:13:40;5.28;;;2.53;;
27889;SDS011;15238;49.082;9.102;2022-08-21T03:15:40;5.50;;;2.47;;
27889;SDS011;15238;49.082;9.102;2022-08-21T03:17:41;4.82;;;2.40;;
27889;SDS011;15238;49.082;9.102;2022-08-21T03:19:42;7.13;;;2.40;;
27889;SDS011;15238;49.082;9.102;2022-08-21T03:21:43;9.05;;;2.80;;
27889;SDS011;15238;49.082;9.102;2022-08-21T03:23:43;2.90;;;2.15;;
27889;SDS011;15238;49.082;9.102;2022-08-21T03:25:44;7.32;;;2.30;;
27889;SDS011;15238;49.082;9.102;2022-08-21T03:27:46;5.30;;;2.63;;
27889;SDS011;15238;49.082;9.102;2022-08-21T03:29:48;4.60;;;2.30;;
27889;SDS011;15238;49.082;9.102;2022-08-21T03:31:49;4.32;;;2.35;;
27889;SDS011;15238;49.082;9.102;2022-08-21T03:33:49;4.55;;;2.80;;
27889;SDS011;15238;49.082;9.102;2022-08-21T03:35:53;5.00;;;2.17;;
27889;SDS011;15238;49.082;9.102;2022-08-21T03:37:57;4.05;;;1.95;;
27889;SDS011;15238;49.082;9.102;2022-08-21T03:39:58;6.30;;;2.10;;
27889;SDS011;15238;49.082;9.102;2022-08-21T03:41:59;4.72;;;2.42;;
27889;SDS011;15238;49.082;9.102;2022-08-21T03:44:00;3.25;;;2.30;;
27889;SDS011;15238;49.082;9.102;2022-08-21T03:46:01;6.32;;;2.80;;
27889;SDS011;15238;49.082;9.102;2022-08-21T03:48:03;3.38;;;2.28;;
27889;SDS011;15238;49.082;9.102;2022-08-21T03:50:05;3.70;;;2.30;;
27889;SDS011;15238;49.082;9.102;2022-08-21T03:52:07;3.25;;;2.13;;
27889;SDS011;15238;49.082;9.102;2022-08-21T03:54:08;4.22;;;2.60;;
27889;SDS011;15238;49.082;9.102;2022-08-21T03:56:09;6.30;;;2.50;;
27889;SDS011;15238;49.082;9.102;2022-08-21T03:58:09;5.20;;;2.65;;
27889;SDS011;15238;49.082;9.102;2022-08-21T04:00:10;4.68;;;2.08;;
27889;SDS011;15238;49.082;9.102;2022-08-21T04:02:13;3.15;;;2.17;;
27889;SDS011;15238;49.082;9.102;2022-08-21T04:04:18;3.53;;;2.40;;
27889;SDS011;15238;49.082;9.102;2022-08-21T04:06:18;4.90;;;2.47;;
27889;SDS011;15238;49.082;9.102;2022-08-21T04:08:19;3.03;;;2.38;;
27889;SDS011;15238;49.082;9.102;2022-08-21T04:10:20;4.68;;;2.55;;
27889;SDS011;15238;49.082;9.102;2022-08-21T04:12:20;4.40;;;2.75;;
27889;SDS011;15238;49.082;9.102;2022-08-21T04:14:21;4.43;;;2.60;;
27889;SDS011;15238;49.082;9.102;2022-08-21T04:16:22;6.50;;;2.50;;
27889;SDS011;15238;49.082;9.102;2022-08-21T04:18:22;3.88;;;2.65;;
27889;SDS011;15238;49.082;9.102;2022-08-21T04:20:23;9.98;;;3.00;;
27889;SDS011;15238;49.082;9.102;2022-08-21T04:22:24;5.57;;;2.63;;
27889;SDS011;15238;49.082;9.102;2022-08-21T04:24:25;6.28;;;3.20;;
27889;SDS011;15238;49.082;9.102;2022-08-21T04:26:25;4.00;;;2.80;;
27889;SDS011;15238;49.082;9.102;2022-08-21T04:28:26;3.88;;;2.63;;
27889;SDS011;15238;49.082;9.102;2022-08-21T04:30:27;6.15;;;2.90;;
27889;SDS011;15238;49.082;9.102;2022-08-21T04:32:28;5.63;;;2.95;;
27889;SDS011;15238;49.082;9.102;2022-08-21T04:34:30;5.53;;;2.90;;
27889;SDS011;15238;49.082;9.102;2022-08-21T04:36:31;3.08;;;2.40;;
27889;SDS011;15238;49.082;9.102;2022-08-21T04:38:33;5.80;;;2.53;;
27889;SDS011;15238;49.082;9.102;2022-08-21T04:40:34;3.42;;;2.50;;
27889;SDS011;15238;49.082;9.102;2022-08-21T04:42:40;6.25;;;2.55;;
27889;SDS011;15238;49.082;9.102;2022-08-21T04:44:43;3.53;;;2.40;;
27889;SDS011;15238;49.082;9.102;2022-08-21T04:46:44;3.85;;;2.67;;
27889;SDS011;15238;49.082;9.102;2022-08-21T04:48:44;4.68;;;2.90;;
27889;SDS011;15238;49.082;9.102;2022-08-21T04:50:47;5.65;;;2.53;;
27889;SDS011;15238;49.082;9.102;2022-08-21T04:52:53;5.53;;;2.53;;
27889;SDS011;15238;49.082;9.102;2022-08-21T04:54:54;6.72;;;2.85;;
27889;SDS011;15238;49.082;9.102;2022-08-21T04:56:56;4.85;;;2.45;;
27889;SDS011;15238;49.082;9.102;2022-08-21T04:59:04;5.05;;;2.38;;
27889;SDS011;15238;49.082;9.102;2022-08-21T05:01:13;6.90;;;2.70;;
27889;SDS011;15238;49.082;9.102;2022-08-21T05:03:16;4.40;;;2.70;;
27889;SDS011;15238;49.082;9.102;2022-08-21T05:05:17;3.42;;;2.80;;
27889;SDS011;15238;49.082;9.102;2022-08-21T05:07:19;7.05;;;3.20;;
27889;SDS011;15238;49.082;9.102;2022-08-21T05:09:24;4.05;;;2.78;;
27889;SDS011;15238;49.082;9.102;2022-08-21T05:11:25;4.13;;;2.70;;
27889;SDS011;15238;49.082;9.102;2022-08-21T05:13:25;10.50;;;2.70;;
27889;SDS011;15238;49.082;9.102;2022-08-21T05:15:26;6.68;;;2.70;;
27889;SDS011;15238;49.082;9.102;2022-08-21T05:17:27;4.05;;;2.70;;
27889;SDS011;15238;49.082;9.102;2022-08-21T05:19:27;8.93;;;2.70;;
27889;SDS011;15238;49.082;9.102;2022-08-21T05:21:28;6.22;;;2.85;;
27889;SDS011;15238;49.082;9.102;2022-08-21T05:23:29;4.22;;;2.92;;
27889;SDS011;15238;49.082;9.102;2022-08-21T05:25:29;3.10;;;2.25;;
27889;SDS011;15238;49.082;9.102;2022-08-21T05:27:30;4.65;;;2.60;;
27889;SDS011;15238;49.082;9.102;2022-08-21T05:29:30;6.55;;;2.53;;
27889;SDS011;15238;49.082;9.102;2022-08-21T05:31:31;4.82;;;2.50;;
27889;SDS011;15238;49.082;9.102;2022-08-21T05:33:31;7.72;;;2.85;;
27889;SDS011;15238;49.082;9.102;2022-08-21T05:35:32;3.92;;;2.85;;
27889;SDS011;15238;49.082;9.102;2022-08-21T05:37:33;3.90;;;2.65;;
27889;SDS011;15238;49.082;9.102;2022-08-21T05:39:34;4.07;;;2.20;;
27889;SDS011;15238;49.082;9.102;2022-08-21T05:41:35;4.85;;;2.45;;
27889;SDS011;15238;49.082;9.102;2022-08-21T05:43:35;4.80;;;3.10;;
27889;SDS011;15238;49.082;9.102;2022-08-21T05:45:36;7.95;;;2.55;;
27889;SDS011;15238;49.082;9.102;2022-08-21T05:47:36;4.93;;;2.75;;
27889;SDS011;15238;49.082;9.102;2022-08-21T05:49:37;3.15;;;2.72;;
27889;SDS011;15238;49.082;9.102;2022-08-21T05:51:41;5.13;;;2.85;;
27889;SDS011;15238;49.082;9.102;2022-08-21T05:53:42;4.45;;;2.97;;
27889;SDS011;15238;49.082;9.102;2022-08-21T05:55:43;4.90;;;3.00;;
27889;SDS011;15238;49.082;9.102;2022-08-21T05:57:44;3.42;;;2.70;;
27889;SDS011;15238;49.082;9.102;2022-08-21T05:59:44;10.73;;;2.85;;
27889;SDS011;15238;49.082;9.102;2022-08-21T06:01:45;4.80;;;2.65;;
27889;SDS011;15238;49.082;9.102;2022-08-21T06:03:45;4.35;;;2.75;;
27889;SDS011;15238;49.082;9.102;2022-08-21T06:05:46;3.60;;;2.83;;
27889;SDS011;15238;49.082;9.102;2022-08-21T06:07:47;5.90;;;3.22;;
27889;SDS011;15238;49.082;9.102;2022-08-21T06:09:48;6.20;;;2.65;;
27889;SDS011;15238;49.082;9.102;2022-08-21T06:11:49;2.95;;;2.47;;
27889;SDS011;15238;49.082;9.102;2022-08-21T06:13:50;4.68;;;2.63;;
27889;SDS011;15238;49.082;9.102;2022-08-21T06:15:59;6.85;;;2.60;;
27889;SDS011;15238;49.082;9.102;2022-08-21T06:18:05;6.85;;;2.80;;
27889;SDS011;15238;49.082;9.102;2022-08-21T06:20:05;5.65;;;2.50;;
27889;SDS011;15238;49.082;9.102;2022-08-21T06:22:06;6.22;;;2.67;;
27889;SDS011;15238;49.082;9.102;2022-08-21T06:24:07;3.88;;;2.63;;
27889;SDS011;15238;49.082;9.102;2022-08-21T06:26:08;6.00;;;2.78;;
27889;SDS011;15238;49.082;9.102;2022-08-21T06:28:10;3.75;;;2.33;;
27889;SDS011;15238;49.082;9.102;2022-08-21T06:30:11;6.47;;;2.70;;
27889;SDS011;15238;49.082;9.102;2022-08-21T06:32:12;4.45;;;2.38;;
27889;SDS011;15238;49.082;9.102;2022-08-21T06:34:13;8.40;;;2.83;;
27889;SDS011;15238;49.082;9.102;2022-08-21T06:36:14;3.88;;;2.33;;
27889;SDS011;15238;49.082;9.102;2022-08-21T06:38:15;5.53;;;2.70;;
27889;SDS011;15238;49.082;9.102;2022-08-21T06:40:16;7.30;;;2.50;;
27889;SDS011;15238;49.082;9.102;2022-08-21T06:42:17;6.20;;;2.30;;
27889;SDS011;15238;49.082;9.102;2022-08-21T06:44:18;5.15;;;2.70;;
27889;SDS011;15238;49.082;9.102;2022-08-21T06:46:18;4.32;;;3.03;;
27889;SDS011;15238;49.082;9.102;2022-08-21T06:48:19;7.22;;;2.72;;
27889;SDS011;15238;49.082;9.102;2022-08-21T06:50:20;4.57;;;2.10;;
27889;SDS011;15238;49.082;9.102;2022-08-21T06:52:20;4.82;;;2.28;;
27889;SDS011;15238;49.082;9.102;2022-08-21T06:54:21;4.72;;;2.42;;
27889;SDS011;15238;49.082;9.102;2022-08-21T06:56:22;7.45;;;2.60;;
27889;SDS011;15238;49.082;9.102;2022-08-21T06:58:22;6.85;;;2.85;;
27889;SDS011;15238;49.082;9.102;2022-08-21T07:00:23;7.10;;;2.90;;
27889;SDS011;15238;49.082;9.102;2022-08-21T07:02:23;5.43;;;2.20;;
27889;SDS011;15238;49.082;9.102;2022-08-21T07:04:24;4.05;;;2.45;;
27889;SDS011;15238;49.082;9.102;2022-08-21T07:06:25;6.57;;;2.67;;
27889;SDS011;15238;49.082;9.102;2022-08-21T07:08:26;6.20;;;2.85;;
27889;SDS011;15238;49.082;9.102;2022-08-21T07:10:27;3.30;;;2.15;;
27889;SDS011;15238;49.082;9.102;2022-08-21T07:12:28;7.40;;;2.72;;
27889;SDS011;15238;49.082;9.102;2022-08-21T07:14:30;8.95;;;2.60;;
27889;SDS011;15238;49.082;9.102;2022-08-21T07:16:30;6.22;;;2.60;;
27889;SDS011;15238;49.082;9.102;2022-08-21T07:18:31;8.02;;;2.15;;
27889;SDS011;15238;49.082;9.102;2022-08-21T07:20:31;7.93;;;2.58;;
27889;SDS011;15238;49.082;9.102;2022-08-21T07:22:33;5.43;;;2.40;;
27889;SDS011;15238;49.082;9.102;2022-08-21T07:24:36;4.10;;;2.17;;
27889;SDS011;15238;49.082;9.102;2022-08-21T07:26:36;5.32;;;2.20;;
27889;SDS011;15238;49.082;9.102;2022-08-21T07:28:37;4.68;;;2.17;;
27889;SDS011;15238;49.082;9.102;2022-08-21T07:30:38;5.82;;;2.30;;
27889;SDS011;15238;49.082;9.102;2022-08-21T07:32:38;8.32;;;2.35;;
27889;SDS011;15238;49.082;9.102;2022-08-21T07:34:39;7.28;;;2.10;;
27889;SDS011;15238;49.082;9.102;2022-08-21T07:36:39;5.60;;;1.90;;
27889;SDS011;15238;49.082;9.102;2022-08-21T07:38:43;4.55;;;2.22;;
27889;SDS011;15238;49.082;9.102;2022-08-21T07:40:46;8.60;;;2.10;;
27889;SDS011;15238;49.082;9.102;2022-08-21T07:42:48;8.55;;;2.60;;
27889;SDS011;15238;49.082;9.102;2022-08-21T07:44:51;6.88;;;2.10;;
27889;SDS011;15238;49.082;9.102;2022-08-21T07:46:52;9.02;;;2.40;;
27889;SDS011;15238;49.082;9.102;2022-08-21T07:48:52;7.68;;;2.90;;
27889;SDS011;15238;49.082;9.102;2022-08-21T07:50:53;9.52;;;2.33;;
27889;SDS011;15238;49.082;9.102;2022-08-21T07:52:55;5.93;;;2.30;;
27889;SDS011;15238;49.082;9.102;2022-08-21T07:54:55;5.30;;;2.60;;
27889;SDS011;15238;49.082;9.102;2022-08-21T07:56:56;5.05;;;2.40;;
27889;SDS011;15238;49.082;9.102;2022-08-21T07:58:56;3.85;;;2.40;;
27889;SDS011;15238;49.082;9.102;2022-08-21T08:00:57;5.95;;;2.63;;
27889;SDS011;15238;49.082;9.102;2022-08-21T08:02:58;9.10;;;2.55;;
27889;SDS011;15238;49.082;9.102;2022-08-21T08:05:06;6.18;;;2.50;;
27889;SDS011;15238;49.082;9.102;2022-08-21T08:09:09;4.38;;;2.00;;
27889;SDS011;15238;49.082;9.102;2022-08-21T08:11:10;6.93;;;2.72;;
27889;SDS011;15238;49.082;9.102;2022-08-21T08:13:11;4.43;;;2.13;;
27889;SDS011;15238;49.082;9.102;2022-08-21T08:15:16;6.50;;;2.50;;
27889;SDS011;15238;49.082;9.102;2022-08-21T08:17:19;5.18;;;2.42;;
27889;SDS011;15238;49.082;9.102;2022-08-21T08:19:23;6.00;;;2.33;;
27889;SDS011;15238;49.082;9.102;2022-08-21T08:21:23;6.43;;;2.33;;
27889;SDS011;15238;49.082;9.102;2022-08-21T08:23:24;5.60;;;2.70;;
27889;SDS011;15238;49.082;9.102;2022-08-21T08:25:25;8.30;;;2.85;;
27889;SDS011;15238;49.082;9.102;2022-08-21T08:27:31;6.40;;;2.53;;
27889;SDS011;15238;49.082;9.102;2022-08-21T08:29:32;6.32;;;2.70;;
27889;SDS011;15238;49.082;9.102;2022-08-21T08:31:32;8.27;;;2.80;;
27889;SDS011;15238;49.082;9.102;2022-08-21T08:33:33;6.97;;;2.83;;
27889;SDS011;15238;49.082;9.102;2022-08-21T08:35:37;6.65;;;2.78;;
27889;SDS011;15238;49.082;9.102;2022-08-21T08:37:43;6.35;;;3.15;;
27889;SDS011;15238;49.082;9.102;2022-08-21T08:39:45;5.13;;;2.45;;
27889;SDS011;15238;49.082;9.102;2022-08-21T08:41:45;5.43;;;2.90;;
27889;SDS011;15238;49.082;9.102;2022-08-21T08:43:51;7.20;;;2.75;;
27889;SDS011;15238;49.082;9.102;2022-08-21T08:45:54;7.07;;;2.85;;
27889;SDS011;15238;49.082;9.102;2022-08-21T08:47:59;5.18;;;2.80;;
27889;SDS011;15238;49.082;9.102;2022-08-21T08:52:29;6.65;;;2.88;;
27889;SDS011;15238;49.082;9.102;2022-08-21T08:54:37;6.75;;;2.53;;
27889;SDS011;15238;49.082;9.102;2022-08-21T08:56:41;9.90;;;3.25;;
27889;SDS011;15238;49.082;9.102;2022-08-21T08:58:42;5.97;;;2.50;;
27889;SDS011;15238;49.082;9.102;2022-08-21T09:00:46;9.15;;;2.67;;
27889;SDS011;15238;49.082;9.102;2022-08-21T09:02:50;6.85;;;2.95;;
27889;SDS011;15238;49.082;9.102;2022-08-21T09:04:53;5.57;;;2.60;;
27889;SDS011;15238;49.082;9.102;2022-08-21T09:07:10;4.95;;;2.13;;
27889;SDS011;15238;49.082;9.102;2022-08-21T09:23:21;5.00;;;2.50;;
27889;SDS011;15238;49.082;9.102;2022-08-21T09:25:34;7.63;;;2.50;;
27889;SDS011;15238;49.082;9.102;2022-08-21T09:27:58;7.43;;;2.67;;
27889;SDS011;15238;49.082;9.102;2022-08-21T09:29:59;5.63;;;2.83;;
27889;SDS011;15238;49.082;9.102;2022-08-21T09:32:02;6.80;;;2.92;;
27889;SDS011;15238;49.082;9.102;2022-08-21T09:34:11;8.85;;;2.83;;
27889;SDS011;15238;49.082;9.102;2022-08-21T09:36:22;7.00;;;2.53;;
27889;SDS011;15238;49.082;9.102;2022-08-21T09:38:32;10.18;;;3.00;;
27889;SDS011;15238;49.082;9.102;2022-08-21T09:42:54;6.70;;;2.30;;
27889;SDS011;15238;49.082;9.102;2022-08-21T09:45:11;6.93;;;2.72;;
27889;SDS011;15238;49.082;9.102;2022-08-21T09:47:18;10.17;;;2.80;;
27889;SDS011;15238;49.082;9.102;2022-08-21T09:49:28;11.35;;;2.72;;
27889;SDS011;15238;49.082;9.102;2022-08-21T09:51:33;6.03;;;2.30;;
27889;SDS011;15238;49.082;9.102;2022-08-21T09:53:42;5.38;;;2.63;;
27889;SDS011;15238;49.082;9.102;2022-08-21T09:55:51;9.55;;;2.63;;
27889;SDS011;15238;49.082;9.102;2022-08-21T09:58:13;6.53;;;3.03;;
27889;SDS011;15238;49.082;9.102;2022-08-21T10:00:18;5.75;;;2.80;;
27889;SDS011;15238;49.082;9.102;2022-08-21T10:04:35;8.30;;;2.88;;
27889;SDS011;15238;49.082;9.102;2022-08-21T10:06:36;7.03;;;2.83;;
27889;SDS011;15238;49.082;9.102;2022-08-21T10:08:41;5.47;;;2.50;;
27889;SDS011;15238;49.082;9.102;2022-08-21T10:10:44;7.70;;;3.10;;
27889;SDS011;15238;49.082;9.102;2022-08-21T10:17:06;8.80;;;3.80;;
27889;SDS011;15238;49.082;9.102;2022-08-21T10:19:26;7.65;;;3.13;;
27889;SDS011;15238;49.082;9.102;2022-08-21T10:21:41;5.80;;;3.23;;
27889;SDS011;15238;49.082;9.102;2022-08-21T10:24:28;7.20;;;2.88;;
27889;SDS011;15238;49.082;9.102;2022-08-21T10:26:54;5.10;;;2.92;;
27889;SDS011;15238;49.082;9.102;2022-08-21T10:29:14;7.68;;;3.88;;
27889;SDS011;15238;49.082;9.102;2022-08-21T10:31:34;4.68;;;2.53;;
27889;SDS011;15238;49.082;9.102;2022-08-21T10:33:46;8.00;;;2.90;;
27889;SDS011;15238;49.082;9.102;2022-08-21T10:35:51;6.07;;;3.30;;
27889;SDS011;15238;49.082;9.102;2022-08-21T10:38:20;6.03;;;2.70;;
27889;SDS011;15238;49.082;9.102;2022-08-21T10:40:48;5.97;;;2.95;;
27889;SDS011;15238;49.082;9.102;2022-08-21T10:48:04;8.85;;;3.00;;
27889;SDS011;15238;49.082;9.102;2022-08-21T10:50:19;6.65;;;2.70;;
27889;SDS011;15238;49.082;9.102;2022-08-21T10:53:09;11.40;;;3.28;;
27889;SDS011;15238;49.082;9.102;2022-08-21T10:55:31;7.80;;;3.05;;
27889;SDS011;15238;49.082;9.102;2022-08-21T11:00:20;4.32;;;2.75;;
27889;SDS011;15238;49.082;9.102;2022-08-21T11:02:27;6.45;;;3.05;;
27889;SDS011;15238;49.082;9.102;2022-08-21T11:04:34;5.00;;;2.70;;
27889;SDS011;15238;49.082;9.102;2022-08-21T11:06:59;5.65;;;2.83;;
27889;SDS011;15238;49.082;9.102;2022-08-21T11:09:07;5.10;;;2.50;;
27889;SDS011;15238;49.082;9.102;2022-08-21T11:11:24;5.55;;;2.70;;
27889;SDS011;15238;49.082;9.102;2022-08-21T11:15:53;3.88;;;2.35;;
27889;SDS011;15238;49.082;9.102;2022-08-21T11:20:29;6.68;;;2.38;;
27889;SDS011;15238;49.082;9.102;2022-08-21T11:23:00;6.55;;;2.58;;
27889;SDS011;15238;49.082;9.102;2022-08-21T11:25:23;5.88;;;2.38;;
27889;SDS011;15238;49.082;9.102;2022-08-21T11:27:33;5.88;;;2.60;;
27889;SDS011;15238;49.082;9.102;2022-08-21T11:29:44;4.95;;;2.13;;
27889;SDS011;15238;49.082;9.102;2022-08-21T11:37:16;3.92;;;2.00;;
27889;SDS011;15238;49.082;9.102;2022-08-21T11:41:32;6.82;;;2.50;;
27889;SDS011;15238;49.082;9.102;2022-08-21T11:43:47;6.95;;;2.22;;
27889;SDS011;15238;49.082;9.102;2022-08-21T11:45:55;6.70;;;2.70;;
27889;SDS011;15238;49.082;9.102;2022-08-21T11:50:19;4.40;;;2.30;;
27889;SDS011;15238;49.082;9.102;2022-08-21T11:52:45;4.47;;;2.30;;
27889;SDS011;15238;49.082;9.102;2022-08-21T11:55:03;5.43;;;2.58;;
27889;SDS011;15238;49.082;9.102;2022-08-21T11:57:26;3.55;;;2.20;;
27889;SDS011;15238;49.082;9.102;2022-08-21T11:59:45;4.57;;;2.40;;
27889;SDS011;15238;49.082;9.102;2022-08-21T12:01:51;4.35;;;2.30;;
27889;SDS011;15238;49.082;9.102;2022-08-21T12:03:57;2.92;;;1.88;;
27889;SDS011;15238;49.082;9.102;2022-08-21T12:06:07;3.75;;;2.40;;
27889;SDS011;15238;49.082;9.102;2022-08-21T12:08:26;5.38;;;2.13;;
27889;SDS011;15238;49.082;9.102;2022-08-21T12:10:34;7.78;;;2.25;;
27889;SDS011;15238;49.082;9.102;2022-08-21T12:12:43;9.55;;;2.28;;
27889;SDS011;15238;49.082;9.102;2022-08-21T12:14:45;5.35;;;2.40;;
27889;SDS011;15238;49.082;9.102;2022-08-21T12:16:48;5.00;;;2.72;;
27889;SDS011;15238;49.082;9.102;2022-08-21T12:18:49;8.25;;;2.70;;
27889;SDS011;15238;49.082;9.102;2022-08-21T12:21:24;3.53;;;2.30;;
27889;SDS011;15238;49.082;9.102;2022-08-21T12:23:28;4.97;;;2.17;;
27889;SDS011;15238;49.082;9.102;2022-08-21T12:25:41;5.07;;;2.30;;
27889;SDS011;15238;49.082;9.102;2022-08-21T12:27:51;3.95;;;2.17;;
27889;SDS011;15238;49.082;9.102;2022-08-21T12:30:03;5.70;;;2.75;;
27889;SDS011;15238;49.082;9.102;2022-08-21T12:34:19;5.25;;;2.38;;
27889;SDS011;15238;49.082;9.102;2022-08-21T12:36:27;3.88;;;2.28;;
27889;SDS011;15238;49.082;9.102;2022-08-21T12:41:01;4.45;;;2.33;;
27889;SDS011;15238;49.082;9.102;2022-08-21T12:43:05;3.65;;;2.00;;
27889;SDS011;15238;49.082;9.102;2022-08-21T12:49:37;5.68;;;2.35;;
27889;SDS011;15238;49.082;9.102;2022-08-21T12:51:56;5.50;;;2.30;;
27889;SDS011;15238;49.082;9.102;2022-08-21T12:54:02;4.45;;;1.83;;
27889;SDS011;15238;49.082;9.102;2022-08-21T12:56:03;6.20;;;2.20;;
27889;SDS011;15238;49.082;9.102;2022-08-21T12:58:18;5.18;;;2.28;;
27889;SDS011;15238;49.082;9.102;2022-08-21T13:00:24;5.47;;;2.60;;
27889;SDS011;15238;49.082;9.102;2022-08-21T13:02:28;4.47;;;2.20;;
27889;SDS011;15238;49.082;9.102;2022-08-21T13:06:41;5.97;;;2.60;;
27889;SDS011;15238;49.082;9.102;2022-08-21T13:08:45;8.83;;;2.30;;
27889;SDS011;15238;49.082;9.102;2022-08-21T13:10:47;3.42;;;2.00;;
27889;SDS011;15238;49.082;9.102;2022-08-21T13:12:56;4.82;;;2.40;;
27889;SDS011;15238;49.082;9.102;2022-08-21T13:15:00;6.07;;;2.22;;
27889;SDS011;15238;49.082;9.102;2022-08-21T13:17:04;7.75;;;2.05;;
27889;SDS011;15238;49.082;9.102;2022-08-21T13:19:07;4.38;;;2.15;;
27889;SDS011;15238;49.082;9.102;2022-08-21T13:21:12;5.35;;;2.33;;
27889;SDS011;15238;49.082;9.102;2022-08-21T13:23:23;5.35;;;2.53;;
27889;SDS011;15238;49.082;9.102;2022-08-21T13:25:28;3.53;;;2.28;;
27889;SDS011;15238;49.082;9.102;2022-08-21T13:27:30;5.25;;;2.28;;
27889;SDS011;15238;49.082;9.102;2022-08-21T13:29:32;6.03;;;2.38;;